sensor_id;sensor_type;location;lat;lon;timestamp;P1;durP1;ratioP1;P2;durP2;ratioP2
59830;SDS011;45711;50.108;13.712;2023-07-13T00:00:11;9.32;;;4.10;;
59830;SDS011;45711;50.108;13.712;2023-07-13T00:02:41;6.40;;;3.63;;
59830;SDS011;45711;50.108;13.712;2023-07-13T00:05:07;8.13;;;4.18;;
59830;SDS011;45711;50.108;13.712;2023-07-13T00:07:33;7.18;;;3.80;;
59830;SDS011;45711;50.108;13.712;2023-07-13T00:09:58;7.35;;;4.00;;
59830;SDS011;45711;50.108;13.712;2023-07-13T00:12:25;7.28;;;3.92;;
59830;SDS011;45711;50.108;13.712;2023-07-13T00:14:56;8.52;;;3.63;;
59830;SDS011;45711;50.108;13.712;2023-07-13T00:17:22;10.88;;;4.10;;
59830;SDS011;45711;50.108;13.712;2023-07-13T00:19:48;11.60;;;4.30;;
59830;SDS011;45711;50.108;13.712;2023-07-13T00:22:13;6.53;;;3.85;;
59830;SDS011;45711;50.108;13.712;2023-07-13T00:24:39;7.88;;;3.97;;
59830;SDS011;45711;50.108;13.712;2023-07-13T00:27:06;5.88;;;3.90;;
59830;SDS011;45711;50.108;13.712;2023-07-13T00:29:32;5.40;;;4.15;;
59830;SDS011;45711;50.108;13.712;2023-07-13T00:32:00;8.23;;;3.97;;
59830;SDS011;45711;50.108;13.712;2023-07-13T00:34:26;7.85;;;3.85;;
59830;SDS011;45711;50.108;13.712;2023-07-13T00:36:52;8.43;;;4.53;;
59830;SDS011;45711;50.108;13.712;2023-07-13T00:39:18;8.00;;;4.25;;
59830;SDS011;45711;50.108;13.712;2023-07-13T00:41:47;7.85;;;4.20;;
59830;SDS011;45711;50.108;13.712;2023-07-13T00:44:13;9.68;;;4.32;;
59830;SDS011;45711;50.108;13.712;2023-07-13T00:46:40;9.82;;;5.03;;
59830;SDS011;45711;50.108;13.712;2023-07-13T00:49:12;7.57;;;4.15;;
59830;SDS011;45711;50.108;13.712;2023-07-13T00:51:43;8.45;;;4.00;;
59830;SDS011;45711;50.108;13.712;2023-07-13T00:54:13;17.42;;;7.57;;
59830;SDS011;45711;50.108;13.712;2023-07-13T00:56:40;13.00;;;6.38;;
59830;SDS011;45711;50.108;13.712;2023-07-13T00:59:08;7.05;;;4.50;;
59830;SDS011;45711;50.108;13.712;2023-07-13T01:01:37;7.15;;;4.45;;
59830;SDS011;45711;50.108;13.712;2023-07-13T01:04:02;12.07;;;4.38;;
59830;SDS011;45711;50.108;13.712;2023-07-13T01:06:30;8.13;;;4.22;;
59830;SDS011;45711;50.108;13.712;2023-07-13T01:08:55;10.55;;;4.38;;
59830;SDS011;45711;50.108;13.712;2023-07-13T01:11:23;9.25;;;4.53;;
59830;SDS011;45711;50.108;13.712;2023-07-13T01:13:49;9.88;;;4.82;;
59830;SDS011;45711;50.108;13.712;2023-07-13T01:16:15;12.02;;;4.53;;
59830;SDS011;45711;50.108;13.712;2023-07-13T01:18:47;8.68;;;4.68;;
59830;SDS011;45711;50.108;13.712;2023-07-13T01:21:14;8.05;;;4.35;;
59830;SDS011;45711;50.108;13.712;2023-07-13T01:23:39;8.32;;;3.92;;
59830;SDS011;45711;50.108;13.712;2023-07-13T01:26:05;12.05;;;4.65;;
59830;SDS011;45711;50.108;13.712;2023-07-13T01:28:30;11.55;;;4.50;;
59830;SDS011;45711;50.108;13.712;2023-07-13T01:30:57;9.38;;;4.50;;
59830;SDS011;45711;50.108;13.712;2023-07-13T01:33:24;10.25;;;4.53;;
59830;SDS011;45711;50.108;13.712;2023-07-13T01:35:50;9.40;;;5.05;;
59830;SDS011;45711;50.108;13.712;2023-07-13T01:38:20;18.05;;;7.07;;
59830;SDS011;45711;50.108;13.712;2023-07-13T01:40:47;11.73;;;5.25;;
59830;SDS011;45711;50.108;13.712;2023-07-13T01:43:13;13.52;;;5.25;;
59830;SDS011;45711;50.108;13.712;2023-07-13T01:45:39;22.45;;;7.13;;
59830;SDS011;45711;50.108;13.712;2023-07-13T01:48:04;9.50;;;4.90;;
59830;SDS011;45711;50.108;13.712;2023-07-13T01:50:31;9.95;;;5.50;;
59830;SDS011;45711;50.108;13.712;2023-07-13T01:52:57;7.15;;;4.47;;
59830;SDS011;45711;50.108;13.712;2023-07-13T01:55:24;8.07;;;4.70;;
59830;SDS011;45711;50.108;13.712;2023-07-13T01:57:50;9.05;;;4.80;;
59830;SDS011;45711;50.108;13.712;2023-07-13T02:00:15;16.58;;;5.57;;
59830;SDS011;45711;50.108;13.712;2023-07-13T02:02:42;11.70;;;5.07;;
59830;SDS011;45711;50.108;13.712;2023-07-13T02:05:08;12.10;;;4.85;;
59830;SDS011;45711;50.108;13.712;2023-07-13T02:07:33;8.07;;;4.38;;
59830;SDS011;45711;50.108;13.712;2023-07-13T02:09:59;10.65;;;4.90;;
59830;SDS011;45711;50.108;13.712;2023-07-13T02:12:26;8.07;;;4.82;;
59830;SDS011;45711;50.108;13.712;2023-07-13T02:14:52;9.15;;;4.25;;
59830;SDS011;45711;50.108;13.712;2023-07-13T02:17:17;29.48;;;7.95;;
59830;SDS011;45711;50.108;13.712;2023-07-13T02:19:43;16.77;;;6.53;;
59830;SDS011;45711;50.108;13.712;2023-07-13T02:22:08;13.20;;;5.88;;
59830;SDS011;45711;50.108;13.712;2023-07-13T02:24:34;17.00;;;6.10;;
59830;SDS011;45711;50.108;13.712;2023-07-13T02:26:59;7.05;;;4.53;;
59830;SDS011;45711;50.108;13.712;2023-07-13T02:29:26;7.47;;;4.25;;
59830;SDS011;45711;50.108;13.712;2023-07-13T02:31:52;7.13;;;4.43;;
59830;SDS011;45711;50.108;13.712;2023-07-13T02:34:18;8.55;;;4.13;;
59830;SDS011;45711;50.108;13.712;2023-07-13T02:36:43;7.55;;;4.35;;
59830;SDS011;45711;50.108;13.712;2023-07-13T02:39:09;8.32;;;4.28;;
59830;SDS011;45711;50.108;13.712;2023-07-13T02:41:37;10.88;;;4.45;;
59830;SDS011;45711;50.108;13.712;2023-07-13T02:44:03;12.35;;;4.43;;
59830;SDS011;45711;50.108;13.712;2023-07-13T02:46:30;13.52;;;4.10;;
59830;SDS011;45711;50.108;13.712;2023-07-13T02:48:56;7.60;;;3.35;;
59830;SDS011;45711;50.108;13.712;2023-07-13T02:51:21;10.75;;;3.80;;
59830;SDS011;45711;50.108;13.712;2023-07-13T02:53:47;7.95;;;3.10;;
59830;SDS011;45711;50.108;13.712;2023-07-13T02:56:12;6.78;;;3.00;;
59830;SDS011;45711;50.108;13.712;2023-07-13T02:58:38;11.82;;;4.00;;
59830;SDS011;45711;50.108;13.712;2023-07-13T03:01:06;15.77;;;4.30;;
59830;SDS011;45711;50.108;13.712;2023-07-13T03:03:33;14.43;;;4.43;;
59830;SDS011;45711;50.108;13.712;2023-07-13T03:06:00;12.40;;;4.13;;
59830;SDS011;45711;50.108;13.712;2023-07-13T03:08:27;7.80;;;3.30;;
59830;SDS011;45711;50.108;13.712;2023-07-13T03:10:58;7.10;;;3.42;;
59830;SDS011;45711;50.108;13.712;2023-07-13T03:13:25;8.68;;;3.95;;
59830;SDS011;45711;50.108;13.712;2023-07-13T03:15:50;14.18;;;3.30;;
59830;SDS011;45711;50.108;13.712;2023-07-13T03:18:16;7.63;;;3.42;;
59830;SDS011;45711;50.108;13.712;2023-07-13T03:20:43;7.43;;;2.90;;
59830;SDS011;45711;50.108;13.712;2023-07-13T03:23:09;4.20;;;2.40;;
59830;SDS011;45711;50.108;13.712;2023-07-13T03:25:34;5.80;;;2.60;;
59830;SDS011;45711;50.108;13.712;2023-07-13T03:28:00;6.72;;;2.33;;
59830;SDS011;45711;50.108;13.712;2023-07-13T03:30:25;6.55;;;2.50;;
59830;SDS011;45711;50.108;13.712;2023-07-13T03:32:53;6.80;;;2.33;;
59830;SDS011;45711;50.108;13.712;2023-07-13T03:35:19;6.95;;;2.60;;
59830;SDS011;45711;50.108;13.712;2023-07-13T03:37:46;5.35;;;2.42;;
59830;SDS011;45711;50.108;13.712;2023-07-13T03:40:13;7.65;;;2.13;;
59830;SDS011;45711;50.108;13.712;2023-07-13T03:42:38;4.00;;;2.13;;
59830;SDS011;45711;50.108;13.712;2023-07-13T03:45:04;5.72;;;2.55;;
59830;SDS011;45711;50.108;13.712;2023-07-13T03:47:30;4.20;;;2.00;;
59830;SDS011;45711;50.108;13.712;2023-07-13T03:49:56;10.07;;;2.55;;
59830;SDS011;45711;50.108;13.712;2023-07-13T03:52:22;5.80;;;2.53;;
59830;SDS011;45711;50.108;13.712;2023-07-13T03:54:49;5.25;;;2.10;;
59830;SDS011;45711;50.108;13.712;2023-07-13T03:57:15;4.18;;;2.50;;
59830;SDS011;45711;50.108;13.712;2023-07-13T03:59:40;4.75;;;2.35;;
59830;SDS011;45711;50.108;13.712;2023-07-13T04:02:06;6.78;;;2.55;;
59830;SDS011;45711;50.108;13.712;2023-07-13T04:04:32;3.15;;;2.38;;
59830;SDS011;45711;50.108;13.712;2023-07-13T04:06:58;4.95;;;2.20;;
59830;SDS011;45711;50.108;13.712;2023-07-13T04:09:24;2.92;;;2.20;;
59830;SDS011;45711;50.108;13.712;2023-07-13T04:11:51;5.90;;;2.20;;
59830;SDS011;45711;50.108;13.712;2023-07-13T04:14:17;3.00;;;2.10;;
59830;SDS011;45711;50.108;13.712;2023-07-13T04:16:43;3.60;;;2.40;;
59830;SDS011;45711;50.108;13.712;2023-07-13T04:19:09;6.13;;;2.20;;
59830;SDS011;45711;50.108;13.712;2023-07-13T04:21:35;3.95;;;2.08;;
59830;SDS011;45711;50.108;13.712;2023-07-13T04:24:02;4.07;;;2.20;;
59830;SDS011;45711;50.108;13.712;2023-07-13T04:26:28;7.07;;;2.10;;
59830;SDS011;45711;50.108;13.712;2023-07-13T04:28:55;5.55;;;2.00;;
59830;SDS011;45711;50.108;13.712;2023-07-13T04:31:21;9.02;;;2.50;;
59830;SDS011;45711;50.108;13.712;2023-07-13T04:33:47;5.40;;;2.10;;
59830;SDS011;45711;50.108;13.712;2023-07-13T04:36:13;4.72;;;2.17;;
59830;SDS011;45711;50.108;13.712;2023-07-13T04:38:39;4.95;;;1.80;;
59830;SDS011;45711;50.108;13.712;2023-07-13T04:41:06;4.35;;;1.92;;
59830;SDS011;45711;50.108;13.712;2023-07-13T04:43:33;4.78;;;1.77;;
59830;SDS011;45711;50.108;13.712;2023-07-13T04:46:04;4.05;;;2.05;;
59830;SDS011;45711;50.108;13.712;2023-07-13T04:48:31;3.28;;;1.88;;
59830;SDS011;45711;50.108;13.712;2023-07-13T04:50:57;3.95;;;2.70;;
59830;SDS011;45711;50.108;13.712;2023-07-13T04:53:24;7.07;;;2.97;;
59830;SDS011;45711;50.108;13.712;2023-07-13T04:55:49;7.95;;;2.50;;
59830;SDS011;45711;50.108;13.712;2023-07-13T04:58:15;13.70;;;2.80;;
59830;SDS011;45711;50.108;13.712;2023-07-13T05:00:41;4.38;;;2.30;;
59830;SDS011;45711;50.108;13.712;2023-07-13T05:03:08;7.95;;;2.50;;
59830;SDS011;45711;50.108;13.712;2023-07-13T05:05:34;7.65;;;2.40;;
59830;SDS011;45711;50.108;13.712;2023-07-13T05:08:00;3.40;;;2.10;;
59830;SDS011;45711;50.108;13.712;2023-07-13T05:10:25;5.50;;;2.40;;
59830;SDS011;45711;50.108;13.712;2023-07-13T05:12:51;5.07;;;2.33;;
59830;SDS011;45711;50.108;13.712;2023-07-13T05:15:17;4.22;;;2.65;;
59830;SDS011;45711;50.108;13.712;2023-07-13T05:17:46;7.50;;;2.22;;
59830;SDS011;45711;50.108;13.712;2023-07-13T05:20:13;3.28;;;2.20;;
59830;SDS011;45711;50.108;13.712;2023-07-13T05:22:39;3.50;;;2.22;;
59830;SDS011;45711;50.108;13.712;2023-07-13T05:25:05;7.93;;;2.38;;
59830;SDS011;45711;50.108;13.712;2023-07-13T05:27:32;4.95;;;1.90;;
59830;SDS011;45711;50.108;13.712;2023-07-13T05:29:58;7.72;;;2.03;;
59830;SDS011;45711;50.108;13.712;2023-07-13T05:32:24;5.93;;;1.98;;
59830;SDS011;45711;50.108;13.712;2023-07-13T05:34:49;4.10;;;2.28;;
59830;SDS011;45711;50.108;13.712;2023-07-13T05:37:16;3.15;;;2.10;;
59830;SDS011;45711;50.108;13.712;2023-07-13T05:39:42;4.88;;;1.80;;
59830;SDS011;45711;50.108;13.712;2023-07-13T05:42:07;4.95;;;2.00;;
59830;SDS011;45711;50.108;13.712;2023-07-13T05:44:33;4.70;;;1.88;;
59830;SDS011;45711;50.108;13.712;2023-07-13T05:46:58;8.02;;;2.40;;
59830;SDS011;45711;50.108;13.712;2023-07-13T05:49:24;3.72;;;2.10;;
59830;SDS011;45711;50.108;13.712;2023-07-13T05:51:50;7.03;;;2.13;;
59830;SDS011;45711;50.108;13.712;2023-07-13T05:54:16;5.72;;;2.25;;
59830;SDS011;45711;50.108;13.712;2023-07-13T05:56:42;6.82;;;2.03;;
59830;SDS011;45711;50.108;13.712;2023-07-13T05:59:07;5.93;;;2.13;;
59830;SDS011;45711;50.108;13.712;2023-07-13T06:01:33;5.97;;;2.10;;
59830;SDS011;45711;50.108;13.712;2023-07-13T06:03:59;6.43;;;2.00;;
59830;SDS011;45711;50.108;13.712;2023-07-13T06:06:24;8.18;;;2.25;;
59830;SDS011;45711;50.108;13.712;2023-07-13T06:08:50;4.07;;;1.92;;
59830;SDS011;45711;50.108;13.712;2023-07-13T06:11:18;4.97;;;2.10;;
59830;SDS011;45711;50.108;13.712;2023-07-13T06:13:45;2.35;;;1.88;;
59830;SDS011;45711;50.108;13.712;2023-07-13T06:16:12;3.40;;;2.08;;
59830;SDS011;45711;50.108;13.712;2023-07-13T06:18:39;6.68;;;2.00;;
59830;SDS011;45711;50.108;13.712;2023-07-13T06:21:06;4.50;;;2.03;;
59830;SDS011;45711;50.108;13.712;2023-07-13T06:23:32;4.47;;;1.90;;
59830;SDS011;45711;50.108;13.712;2023-07-13T06:25:57;3.08;;;2.00;;
59830;SDS011;45711;50.108;13.712;2023-07-13T06:28:24;2.92;;;1.88;;
59830;SDS011;45711;50.108;13.712;2023-07-13T06:30:50;4.72;;;1.90;;
59830;SDS011;45711;50.108;13.712;2023-07-13T06:33:15;4.40;;;1.85;;
59830;SDS011;45711;50.108;13.712;2023-07-13T06:35:41;4.95;;;1.67;;
59830;SDS011;45711;50.108;13.712;2023-07-13T06:38:07;5.00;;;2.28;;
59830;SDS011;45711;50.108;13.712;2023-07-13T06:40:32;5.32;;;1.90;;
59830;SDS011;45711;50.108;13.712;2023-07-13T06:42:58;4.88;;;1.88;;
59830;SDS011;45711;50.108;13.712;2023-07-13T06:45:25;2.42;;;1.55;;
59830;SDS011;45711;50.108;13.712;2023-07-13T06:47:50;4.15;;;1.73;;
59830;SDS011;45711;50.108;13.712;2023-07-13T06:50:16;2.85;;;1.83;;
59830;SDS011;45711;50.108;13.712;2023-07-13T06:52:42;4.72;;;2.10;;
59830;SDS011;45711;50.108;13.712;2023-07-13T06:55:08;2.85;;;1.80;;
59830;SDS011;45711;50.108;13.712;2023-07-13T06:57:33;3.45;;;1.85;;
59830;SDS011;45711;50.108;13.712;2023-07-13T06:59:59;2.90;;;1.92;;
59830;SDS011;45711;50.108;13.712;2023-07-13T07:02:26;5.00;;;1.70;;
59830;SDS011;45711;50.108;13.712;2023-07-13T07:04:53;7.05;;;1.90;;
59830;SDS011;45711;50.108;13.712;2023-07-13T07:07:19;6.63;;;1.80;;
59830;SDS011;45711;50.108;13.712;2023-07-13T07:09:48;2.75;;;1.75;;
59830;SDS011;45711;50.108;13.712;2023-07-13T07:12:14;8.63;;;1.90;;
59830;SDS011;45711;50.108;13.712;2023-07-13T07:14:39;5.10;;;1.80;;
59830;SDS011;45711;50.108;13.712;2023-07-13T07:17:05;3.97;;;1.70;;
59830;SDS011;45711;50.108;13.712;2023-07-13T07:19:32;4.72;;;1.85;;
59830;SDS011;45711;50.108;13.712;2023-07-13T07:21:59;4.75;;;1.75;;
59830;SDS011;45711;50.108;13.712;2023-07-13T07:24:25;4.07;;;1.50;;
59830;SDS011;45711;50.108;13.712;2023-07-13T07:26:51;5.13;;;1.70;;
59830;SDS011;45711;50.108;13.712;2023-07-13T07:29:16;4.35;;;1.52;;
59830;SDS011;45711;50.108;13.712;2023-07-13T07:31:42;4.38;;;1.70;;
59830;SDS011;45711;50.108;13.712;2023-07-13T07:34:07;5.30;;;1.40;;
59830;SDS011;45711;50.108;13.712;2023-07-13T07:36:35;2.72;;;1.50;;
59830;SDS011;45711;50.108;13.712;2023-07-13T07:39:00;2.20;;;1.20;;
59830;SDS011;45711;50.108;13.712;2023-07-13T07:41:26;2.38;;;1.38;;
59830;SDS011;45711;50.108;13.712;2023-07-13T07:43:52;3.28;;;1.38;;
59830;SDS011;45711;50.108;13.712;2023-07-13T07:46:20;8.07;;;1.80;;
59830;SDS011;45711;50.108;13.712;2023-07-13T07:48:49;7.68;;;1.42;;
59830;SDS011;45711;50.108;13.712;2023-07-13T07:51:15;4.28;;;1.30;;
59830;SDS011;45711;50.108;13.712;2023-07-13T07:53:42;3.17;;;1.40;;
59830;SDS011;45711;50.108;13.712;2023-07-13T07:56:08;1.90;;;1.10;;
59830;SDS011;45711;50.108;13.712;2023-07-13T07:58:35;3.67;;;1.27;;
59830;SDS011;45711;50.108;13.712;2023-07-13T08:03:30;3.60;;;1.20;;
59830;SDS011;45711;50.108;13.712;2023-07-13T08:05:58;1.83;;;1.00;;
59830;SDS011;45711;50.108;13.712;2023-07-13T08:08:24;3.72;;;1.02;;
59830;SDS011;45711;50.108;13.712;2023-07-13T08:10:52;2.83;;;1.00;;
59830;SDS011;45711;50.108;13.712;2023-07-13T08:13:18;3.15;;;1.23;;
59830;SDS011;45711;50.108;13.712;2023-07-13T08:15:46;1.85;;;0.98;;
59830;SDS011;45711;50.108;13.712;2023-07-13T08:20:41;5.82;;;1.35;;
59830;SDS011;45711;50.108;13.712;2023-07-13T08:23:07;4.05;;;1.20;;
59830;SDS011;45711;50.108;13.712;2023-07-13T08:25:35;7.57;;;1.38;;
59830;SDS011;45711;50.108;13.712;2023-07-13T08:28:02;3.10;;;1.20;;
59830;SDS011;45711;50.108;13.712;2023-07-13T08:30:29;1.42;;;1.20;;
59830;SDS011;45711;50.108;13.712;2023-07-13T08:32:55;8.20;;;1.25;;
59830;SDS011;45711;50.108;13.712;2023-07-13T08:35:20;2.65;;;1.20;;
59830;SDS011;45711;50.108;13.712;2023-07-13T08:37:46;3.17;;;1.10;;
59830;SDS011;45711;50.108;13.712;2023-07-13T08:40:12;9.30;;;1.38;;
59830;SDS011;45711;50.108;13.712;2023-07-13T08:42:39;4.20;;;1.30;;
59830;SDS011;45711;50.108;13.712;2023-07-13T08:45:14;3.10;;;0.95;;
59830;SDS011;45711;50.108;13.712;2023-07-13T08:47:46;3.42;;;1.10;;
59830;SDS011;45711;50.108;13.712;2023-07-13T08:50:22;2.70;;;1.20;;
59830;SDS011;45711;50.108;13.712;2023-07-13T08:55:26;3.65;;;1.40;;
59830;SDS011;45711;50.108;13.712;2023-07-13T09:00:34;2.80;;;1.23;;
59830;SDS011;45711;50.108;13.712;2023-07-13T09:03:12;3.47;;;1.20;;
59830;SDS011;45711;50.108;13.712;2023-07-13T09:05:45;2.55;;;1.20;;
59830;SDS011;45711;50.108;13.712;2023-07-13T09:08:19;2.85;;;1.27;;
59830;SDS011;45711;50.108;13.712;2023-07-13T09:11:02;3.00;;;1.48;;
59830;SDS011;45711;50.108;13.712;2023-07-13T09:16:12;2.17;;;1.13;;
59830;SDS011;45711;50.108;13.712;2023-07-13T09:18:40;3.47;;;1.17;;
59830;SDS011;45711;50.108;13.712;2023-07-13T09:21:10;4.38;;;1.40;;
59830;SDS011;45711;50.108;13.712;2023-07-13T09:23:49;3.60;;;1.40;;
59830;SDS011;45711;50.108;13.712;2023-07-13T09:26:18;5.35;;;1.40;;
59830;SDS011;45711;50.108;13.712;2023-07-13T09:31:20;2.83;;;1.08;;
59830;SDS011;45711;50.108;13.712;2023-07-13T09:33:49;2.53;;;1.40;;
59830;SDS011;45711;50.108;13.712;2023-07-13T09:36:17;1.75;;;1.25;;
59830;SDS011;45711;50.108;13.712;2023-07-13T09:38:48;2.70;;;1.17;;
59830;SDS011;45711;50.108;13.712;2023-07-13T09:41:29;4.18;;;1.45;;
59830;SDS011;45711;50.108;13.712;2023-07-13T09:44:07;3.35;;;1.30;;
59830;SDS011;45711;50.108;13.712;2023-07-13T09:46:38;1.38;;;1.10;;
59830;SDS011;45711;50.108;13.712;2023-07-13T09:49:09;3.75;;;1.55;;
59830;SDS011;45711;50.108;13.712;2023-07-13T09:51:36;4.93;;;1.40;;
59830;SDS011;45711;50.108;13.712;2023-07-13T09:56:31;4.35;;;1.30;;
59830;SDS011;45711;50.108;13.712;2023-07-13T09:58:58;1.60;;;1.10;;
59830;SDS011;45711;50.108;13.712;2023-07-13T10:01:36;5.53;;;1.17;;
59830;SDS011;45711;50.108;13.712;2023-07-13T10:04:10;3.92;;;1.40;;
59830;SDS011;45711;50.108;13.712;2023-07-13T10:06:38;5.97;;;1.42;;
59830;SDS011;45711;50.108;13.712;2023-07-13T10:09:08;2.47;;;1.40;;
59830;SDS011;45711;50.108;13.712;2023-07-13T10:11:39;2.55;;;1.30;;
59830;SDS011;45711;50.108;13.712;2023-07-13T10:14:09;2.83;;;1.20;;
59830;SDS011;45711;50.108;13.712;2023-07-13T10:16:39;2.90;;;1.25;;
59830;SDS011;45711;50.108;13.712;2023-07-13T10:19:10;4.55;;;1.20;;
59830;SDS011;45711;50.108;13.712;2023-07-13T10:21:42;8.32;;;1.30;;
59830;SDS011;45711;50.108;13.712;2023-07-13T10:24:14;2.58;;;1.10;;
59830;SDS011;45711;50.108;13.712;2023-07-13T10:26:45;2.60;;;1.25;;
59830;SDS011;45711;50.108;13.712;2023-07-13T10:29:17;5.25;;;1.30;;
59830;SDS011;45711;50.108;13.712;2023-07-13T10:31:45;5.05;;;1.35;;
59830;SDS011;45711;50.108;13.712;2023-07-13T10:34:11;3.05;;;1.30;;
59830;SDS011;45711;50.108;13.712;2023-07-13T10:36:39;4.57;;;1.30;;
59830;SDS011;45711;50.108;13.712;2023-07-13T10:39:09;2.70;;;1.00;;
59830;SDS011;45711;50.108;13.712;2023-07-13T10:41:42;2.95;;;1.15;;
59830;SDS011;45711;50.108;13.712;2023-07-13T10:44:13;4.18;;;1.05;;
59830;SDS011;45711;50.108;13.712;2023-07-13T10:46:47;3.53;;;1.20;;
59830;SDS011;45711;50.108;13.712;2023-07-13T10:49:14;1.85;;;1.17;;
59830;SDS011;45711;50.108;13.712;2023-07-13T10:51:41;4.65;;;1.38;;
59830;SDS011;45711;50.108;13.712;2023-07-13T10:54:11;1.50;;;0.90;;
59830;SDS011;45711;50.108;13.712;2023-07-13T10:56:44;2.97;;;1.65;;
59830;SDS011;45711;50.108;13.712;2023-07-13T10:59:11;3.50;;;0.90;;
59830;SDS011;45711;50.108;13.712;2023-07-13T11:01:50;3.67;;;1.02;;
59830;SDS011;45711;50.108;13.712;2023-07-13T11:04:21;1.85;;;1.30;;
59830;SDS011;45711;50.108;13.712;2023-07-13T11:06:49;2.25;;;1.23;;
59830;SDS011;45711;50.108;13.712;2023-07-13T11:09:19;3.55;;;1.17;;
59830;SDS011;45711;50.108;13.712;2023-07-13T11:11:58;3.78;;;1.38;;
59830;SDS011;45711;50.108;13.712;2023-07-13T11:14:29;2.65;;;1.20;;
59830;SDS011;45711;50.108;13.712;2023-07-13T11:16:57;3.85;;;1.25;;
59830;SDS011;45711;50.108;13.712;2023-07-13T11:19:29;2.08;;;1.23;;
59830;SDS011;45711;50.108;13.712;2023-07-13T11:22:10;1.63;;;0.95;;
59830;SDS011;45711;50.108;13.712;2023-07-13T11:24:48;3.20;;;1.00;;
59830;SDS011;45711;50.108;13.712;2023-07-13T11:27:21;3.53;;;1.13;;
59830;SDS011;45711;50.108;13.712;2023-07-13T11:29:48;3.83;;;1.20;;
59830;SDS011;45711;50.108;13.712;2023-07-13T11:32:25;3.67;;;1.05;;
59830;SDS011;45711;50.108;13.712;2023-07-13T11:34:56;4.22;;;1.10;;
59830;SDS011;45711;50.108;13.712;2023-07-13T11:37:22;1.10;;;0.80;;
59830;SDS011;45711;50.108;13.712;2023-07-13T11:39:50;2.22;;;1.15;;
59830;SDS011;45711;50.108;13.712;2023-07-13T11:42:20;5.32;;;1.10;;
59830;SDS011;45711;50.108;13.712;2023-07-13T11:44:52;6.70;;;1.25;;
59830;SDS011;45711;50.108;13.712;2023-07-13T11:47:19;6.50;;;1.13;;
59830;SDS011;45711;50.108;13.712;2023-07-13T11:49:50;3.17;;;1.08;;
59830;SDS011;45711;50.108;13.712;2023-07-13T11:52:18;2.50;;;1.17;;
59830;SDS011;45711;50.108;13.712;2023-07-13T11:54:47;4.13;;;1.45;;
59830;SDS011;45711;50.108;13.712;2023-07-13T11:57:19;4.47;;;1.23;;
59830;SDS011;45711;50.108;13.712;2023-07-13T11:59:50;2.83;;;1.08;;
59830;SDS011;45711;50.108;13.712;2023-07-13T12:02:18;1.33;;;0.90;;
59830;SDS011;45711;50.108;13.712;2023-07-13T12:04:52;8.68;;;1.20;;
59830;SDS011;45711;50.108;13.712;2023-07-13T12:07:18;2.28;;;1.05;;
59830;SDS011;45711;50.108;13.712;2023-07-13T12:09:44;2.92;;;1.27;;
59830;SDS011;45711;50.108;13.712;2023-07-13T12:12:11;3.47;;;1.10;;
59830;SDS011;45711;50.108;13.712;2023-07-13T12:14:37;9.00;;;1.33;;
59830;SDS011;45711;50.108;13.712;2023-07-13T12:17:04;5.43;;;1.23;;
59830;SDS011;45711;50.108;13.712;2023-07-13T12:19:36;2.42;;;1.13;;
59830;SDS011;45711;50.108;13.712;2023-07-13T12:22:09;7.40;;;1.27;;
59830;SDS011;45711;50.108;13.712;2023-07-13T12:24:37;4.60;;;1.20;;
59830;SDS011;45711;50.108;13.712;2023-07-13T12:27:05;5.70;;;1.40;;
59830;SDS011;45711;50.108;13.712;2023-07-13T12:29:32;5.90;;;1.45;;
59830;SDS011;45711;50.108;13.712;2023-07-13T12:31:58;4.05;;;1.30;;
59830;SDS011;45711;50.108;13.712;2023-07-13T12:34:25;4.43;;;1.15;;
59830;SDS011;45711;50.108;13.712;2023-07-13T12:36:52;2.70;;;1.30;;
59830;SDS011;45711;50.108;13.712;2023-07-13T12:39:22;6.85;;;1.35;;
59830;SDS011;45711;50.108;13.712;2023-07-13T12:41:49;3.42;;;1.27;;
59830;SDS011;45711;50.108;13.712;2023-07-13T12:44:16;2.15;;;1.25;;
59830;SDS011;45711;50.108;13.712;2023-07-13T12:46:53;4.93;;;1.00;;
59830;SDS011;45711;50.108;13.712;2023-07-13T12:49:27;4.75;;;1.10;;
59830;SDS011;45711;50.108;13.712;2023-07-13T12:52:00;6.60;;;1.40;;
59830;SDS011;45711;50.108;13.712;2023-07-13T12:56:55;6.22;;;1.10;;
59830;SDS011;45711;50.108;13.712;2023-07-13T12:59:23;6.82;;;1.30;;
59830;SDS011;45711;50.108;13.712;2023-07-13T13:01:53;7.15;;;1.20;;
59830;SDS011;45711;50.108;13.712;2023-07-13T13:04:19;5.20;;;1.05;;
59830;SDS011;45711;50.108;13.712;2023-07-13T13:06:46;5.63;;;1.00;;
59830;SDS011;45711;50.108;13.712;2023-07-13T13:09:13;5.07;;;1.30;;
59830;SDS011;45711;50.108;13.712;2023-07-13T13:11:41;1.15;;;0.80;;
59830;SDS011;45711;50.108;13.712;2023-07-13T13:14:07;2.95;;;1.02;;
59830;SDS011;45711;50.108;13.712;2023-07-13T13:16:34;3.35;;;1.05;;
59830;SDS011;45711;50.108;13.712;2023-07-13T13:19:05;3.67;;;1.10;;
59830;SDS011;45711;50.108;13.712;2023-07-13T13:21:38;3.22;;;1.20;;
59830;SDS011;45711;50.108;13.712;2023-07-13T13:24:04;2.30;;;1.10;;
59830;SDS011;45711;50.108;13.712;2023-07-13T13:26:36;3.03;;;0.93;;
59830;SDS011;45711;50.108;13.712;2023-07-13T13:29:08;2.95;;;1.10;;
59830;SDS011;45711;50.108;13.712;2023-07-13T13:31:38;2.95;;;1.10;;
59830;SDS011;45711;50.108;13.712;2023-07-13T13:34:04;2.30;;;1.15;;
59830;SDS011;45711;50.108;13.712;2023-07-13T13:36:33;4.70;;;1.00;;
59830;SDS011;45711;50.108;13.712;2023-07-13T13:38:59;2.45;;;1.10;;
59830;SDS011;45711;50.108;13.712;2023-07-13T13:41:27;4.20;;;1.05;;
59830;SDS011;45711;50.108;13.712;2023-07-13T13:43:52;1.92;;;1.00;;
59830;SDS011;45711;50.108;13.712;2023-07-13T13:46:20;6.57;;;1.02;;
59830;SDS011;45711;50.108;13.712;2023-07-13T13:48:50;3.30;;;1.10;;
59830;SDS011;45711;50.108;13.712;2023-07-13T13:51:17;1.85;;;1.00;;
59830;SDS011;45711;50.108;13.712;2023-07-13T13:53:45;2.90;;;1.08;;
59830;SDS011;45711;50.108;13.712;2023-07-13T13:56:11;3.25;;;1.20;;
59830;SDS011;45711;50.108;13.712;2023-07-13T13:58:36;4.53;;;1.05;;
59830;SDS011;45711;50.108;13.712;2023-07-13T14:01:02;6.93;;;1.13;;
59830;SDS011;45711;50.108;13.712;2023-07-13T14:03:34;2.03;;;1.00;;
59830;SDS011;45711;50.108;13.712;2023-07-13T14:06:00;2.65;;;1.23;;
59830;SDS011;45711;50.108;13.712;2023-07-13T14:08:25;1.65;;;1.05;;
59830;SDS011;45711;50.108;13.712;2023-07-13T14:10:51;4.88;;;1.40;;
59830;SDS011;45711;50.108;13.712;2023-07-13T14:13:21;3.35;;;1.13;;
59830;SDS011;45711;50.108;13.712;2023-07-13T14:15:51;5.10;;;1.35;;
59830;SDS011;45711;50.108;13.712;2023-07-13T14:18:17;3.00;;;1.00;;
59830;SDS011;45711;50.108;13.712;2023-07-13T14:20:44;2.55;;;1.30;;
59830;SDS011;45711;50.108;13.712;2023-07-13T14:23:11;3.53;;;1.20;;
59830;SDS011;45711;50.108;13.712;2023-07-13T14:25:38;2.05;;;0.93;;
59830;SDS011;45711;50.108;13.712;2023-07-13T14:28:08;3.40;;;1.05;;
59830;SDS011;45711;50.108;13.712;2023-07-13T14:30:44;2.40;;;1.20;;
59830;SDS011;45711;50.108;13.712;2023-07-13T14:33:12;1.77;;;1.23;;
59830;SDS011;45711;50.108;13.712;2023-07-13T14:35:38;1.38;;;0.98;;
59830;SDS011;45711;50.108;13.712;2023-07-13T14:38:05;3.75;;;0.95;;
59830;SDS011;45711;50.108;13.712;2023-07-13T14:40:36;2.17;;;1.00;;
59830;SDS011;45711;50.108;13.712;2023-07-13T14:43:02;0.95;;;0.85;;
59830;SDS011;45711;50.108;13.712;2023-07-13T14:45:28;2.95;;;0.90;;
59830;SDS011;45711;50.108;13.712;2023-07-13T14:47:56;2.58;;;0.93;;
59830;SDS011;45711;50.108;13.712;2023-07-13T14:50:23;10.77;;;1.27;;
59830;SDS011;45711;50.108;13.712;2023-07-13T14:52:53;4.50;;;1.42;;
59830;SDS011;45711;50.108;13.712;2023-07-13T14:55:20;2.67;;;1.95;;